Time;durP1;ratioP1;P1;durP2;ratioP2;P2;SDS_P1;SDS_P2;PMS_P1;PMS_P2;Temp;Humidity;BMP_temperature;BMP_pressure;BME280_temperature;BME280_humidity;BME280_pressure;Samples;Min_cycle;Max_cycle;Signal;HPM_P1;HPM_P2
2023/07/22 00:00:26;;;;;;;;;;;;;;;16.31;100.00;98056.69;2620264;28;19971;-90
2023/07/22 00:02:01;;;;;;;;;;;;;;;16.32;100.00;98058.41;2619608;28;20451;-90
2023/07/22 00:03:17;;;;;;;;;;;;;;;16.20;100.00;98066.13;2619819;28;20036;-91
2023/07/22 00:04:32;;;;;;;;;;;;;;;16.18;100.00;98067.13;2619786;28;19928;-90
2023/07/22 00:05:48;;;;;;;;;;;;;;;16.07;100.00;98070.41;2619800;28;20438;-90
2023/07/22 00:07:03;;;;;;;;;;;;;;;15.83;100.00;98068.16;2620248;28;19967;-89
2023/07/22 00:08:19;;;;;;;;;;;;;;;15.76;100.00;98075.56;2620144;28;19974;-89
2023/07/22 00:09:34;;;;;;;;;;;;;;;15.90;100.00;98072.16;2620444;28;19924;-91
2023/07/22 00:10:49;;;;;;;;;;;;;;;16.00;100.00;98069.03;2619685;28;19985;-90
2023/07/22 00:12:05;;;;;;;;;;;;;;;16.09;100.00;98057.94;2620586;28;19947;-90
2023/07/22 00:13:21;;;;;;;;;;;;;;;16.04;100.00;98060.84;2619930;28;19928;-90
2023/07/22 00:14:39;;;;;;;;;;;;;;;16.06;100.00;98064.25;2620104;28;19963;-91
2023/07/22 00:15:54;;;;;;;;;;;;;;;15.99;100.00;98068.16;2619393;28;20345;-91
2023/07/22 00:17:10;;;;;;;;;;;;;;;15.88;100.00;98062.63;2620396;28;19928;-91
2023/07/22 00:18:27;;;;;;;;;;;;;;;15.78;100.00;98071.03;2620117;28;19979;-91
2023/07/22 00:19:42;;;;;;;;;;;;;;;15.81;100.00;98065.59;2619770;28;20002;-91
2023/07/22 00:20:57;;;;;;;;;;;;;;;15.81;100.00;98067.41;2620201;28;19935;-93
2023/07/22 00:22:14;;;;;;;;;;;;;;;15.80;100.00;98073.63;2620295;28;19932;-93
2023/07/22 00:23:30;;;;;;;;;;;;;;;15.91;100.00;98073.03;2619595;28;20388;-90
2023/07/22 00:24:45;;;;;;;;;;;;;;;15.81;100.00;98076.16;2620546;28;19928;-91
2023/07/22 00:26:01;;;;;;;;;;;;;;;15.65;100.00;98076.16;2619713;28;19932;-91
2023/07/22 00:27:16;;;;;;;;;;;;;;;15.75;100.00;98070.34;2619431;28;19939;-91
2023/07/22 00:28:32;;;;;;;;;;;;;;;15.70;100.00;98077.69;2619384;28;19928;-90
2023/07/22 00:29:47;;;;;;;;;;;;;;;15.67;100.00;98071.66;2620542;28;20343;-92
2023/07/22 00:31:03;;;;;;;;;;;;;;;15.73;100.00;98072.22;2619786;28;19932;-91
2023/07/22 00:32:18;;;;;;;;;;;;;;;15.65;100.00;98070.00;2619890;28;19956;-91
2023/07/22 00:33:34;;;;;;;;;;;;;;;15.49;100.00;98076.13;2620033;28;20334;-92
2023/07/22 00:34:49;;;;;;;;;;;;;;;15.48;100.00;98076.19;2620481;28;20395;-91
2023/07/22 00:36:04;;;;;;;;;;;;;;;15.58;100.00;98074.78;2619817;28;19928;-91
2023/07/22 00:37:20;;;;;;;;;;;;;;;15.58;100.00;98074.78;2620307;28;20366;-91
2023/07/22 00:38:35;;;;;;;;;;;;;;;15.55;100.00;98069.66;2620417;28;19929;-91
2023/07/22 00:39:51;;;;;;;;;;;;;;;15.57;100.00;98072.22;2620033;28;19932;-91
2023/07/22 00:41:07;;;;;;;;;;;;;;;15.46;100.00;98078.06;2620403;28;19924;-91
2023/07/22 00:42:22;;;;;;;;;;;;;;;15.25;100.00;98078.31;2620220;28;19928;-91
2023/07/22 00:43:38;;;;;;;;;;;;;;;15.01;100.00;98078.66;2620037;28;19936;-92
2023/07/22 00:44:53;;;;;;;;;;;;;;;15.08;100.00;98076.56;2619853;28;19939;-92
2023/07/22 00:46:08;;;;;;;;;;;;;;;15.05;100.00;98079.34;2620641;28;19928;-92
2023/07/22 00:47:24;;;;;;;;;;;;;;;15.10;100.00;98079.94;2620129;28;19929;-92
2023/07/22 00:48:40;;;;;;;;;;;;;;;15.07;100.00;98072.22;2620384;28;19928;-92
2023/07/22 00:49:55;;;;;;;;;;;;;;;14.86;100.00;98075.00;2620078;28;20395;-92
2023/07/22 00:51:11;;;;;;;;;;;;;;;14.90;100.00;98073.94;2619951;28;20422;-92
2023/07/22 00:52:26;;;;;;;;;;;;;;;14.85;100.00;98075.13;2620044;28;20065;-91
2023/07/22 00:53:42;;;;;;;;;;;;;;;14.68;100.00;98079.44;2620569;28;19943;-93
2023/07/22 00:54:58;;;;;;;;;;;;;;;14.60;100.00;98074.56;2620094;28;20303;-92
2023/07/22 00:56:13;;;;;;;;;;;;;;;14.75;100.00;98065.03;2620545;28;20334;-92
2023/07/22 00:57:28;;;;;;;;;;;;;;;14.72;100.00;98067.84;2619848;28;19924;-92
2023/07/22 00:58:44;;;;;;;;;;;;;;;14.73;100.00;98074.81;2619464;28;20295;-92
2023/07/22 00:59:59;;;;;;;;;;;;;;;14.66;100.00;98068.09;2619518;28;19924;-91
2023/07/22 01:01:15;;;;;;;;;;;;;;;14.75;100.00;98074.75;2619895;28;20436;-92
2023/07/22 01:02:30;;;;;;;;;;;;;;;14.64;100.00;98075.22;2619943;28;20001;-92
2023/07/22 01:03:46;;;;;;;;;;;;;;;14.79;100.00;98069.22;2620765;28;19929;-92
2023/07/22 01:05:04;;;;;;;;;;;;;;;14.67;100.00;98065.41;2619930;28;19938;-92
2023/07/22 01:06:20;;;;;;;;;;;;;;;14.78;100.00;98075.41;2620298;28;20359;-92
2023/07/22 01:07:36;;;;;;;;;;;;;;;14.75;100.00;98074.75;2620315;28;20022;-93
2023/07/22 01:08:51;;;;;;;;;;;;;;;14.81;100.00;98070.00;2619978;28;20329;-93
2023/07/22 01:10:08;;;;;;;;;;;;;;;14.75;100.00;98067.66;2620089;28;19935;-93
2023/07/22 01:11:23;;;;;;;;;;;;;;;14.70;100.00;98064.41;2620396;28;20421;-91
2023/07/22 01:12:39;;;;;;;;;;;;;;;14.87;100.00;98073.25;2619880;28;20003;-91
2023/07/22 01:13:57;;;;;;;;;;;;;;;14.90;100.00;98078.34;2619270;28;19928;-92
2023/07/22 01:15:13;;;;;;;;;;;;;;;14.79;100.00;98071.00;2620410;28;19964;-91
2023/07/22 01:16:29;;;;;;;;;;;;;;;14.77;100.00;98073.72;2619558;28;19960;-91
2023/07/22 01:17:45;;;;;;;;;;;;;;;14.62;100.00;98075.31;2618510;28;19939;-93
2023/07/22 01:19:00;;;;;;;;;;;;;;;14.67;100.00;98077.72;2619762;28;19932;-91
2023/07/22 01:20:18;;;;;;;;;;;;;;;14.76;100.00;98077.28;2619838;28;20402;-91
2023/07/22 01:21:34;;;;;;;;;;;;;;;14.68;100.00;98077.63;2619614;28;19928;-91
2023/07/22 01:22:50;;;;;;;;;;;;;;;14.52;100.00;98074.06;2618738;28;19944;-91
2023/07/22 01:24:06;;;;;;;;;;;;;;;14.31;100.00;98076.00;2618794;28;19931;-90
2023/07/22 01:25:22;;;;;;;;;;;;;;;14.55;100.00;98074.78;2619680;28;20387;-92
2023/07/22 01:26:38;;;;;;;;;;;;;;;14.69;100.00;98075.88;2620111;28;19928;-91
2023/07/22 01:27:53;;;;;;;;;;;;;;;14.76;100.00;98069.38;2619580;28;19928;-91
2023/07/22 01:29:09;;;;;;;;;;;;;;;14.68;100.00;98074.16;2619626;28;19928;-92
2023/07/22 01:30:27;;;;;;;;;;;;;;;14.76;100.00;98074.63;2620167;28;20384;-92
2023/07/22 01:31:44;;;;;;;;;;;;;;;14.75;100.00;98086.13;2619616;28;19973;-91
2023/07/22 01:32:59;;;;;;;;;;;;;;;14.53;100.00;98086.31;2620039;28;20007;-91
2023/07/22 01:34:14;;;;;;;;;;;;;;;14.53;100.00;98087.19;2619768;28;19925;-91
2023/07/22 01:35:30;;;;;;;;;;;;;;;14.47;100.00;98082.19;2619806;28;19931;-91
2023/07/22 01:36:47;;;;;;;;;;;;;;;14.60;100.00;98079.81;2620299;28;19925;-90
2023/07/22 01:38:02;;;;;;;;;;;;;;;14.61;100.00;98078.91;2618534;28;19974;-93
2023/07/22 01:39:21;;;;;;;;;;;;;;;14.61;100.00;98080.66;2619544;28;20389;-90
2023/07/22 01:40:38;;;;;;;;;;;;;;;14.14;100.00;98080.31;2619117;28;19982;-91
2023/07/22 01:41:53;;;;;;;;;;;;;;;14.03;100.00;98086.06;2619229;28;19956;-90
2023/07/22 01:43:08;;;;;;;;;;;;;;;14.19;100.00;98083.56;2618400;28;20298;-90
2023/07/22 01:44:23;;;;;;;;;;;;;;;14.22;100.00;98086.03;2619686;28;20127;-90
2023/07/22 01:45:39;;;;;;;;;;;;;;;14.29;100.00;98083.13;2619660;28;19928;-90
2023/07/22 01:46:55;;;;;;;;;;;;;;;14.37;100.00;98092.34;2619403;28;19928;-90
2023/07/22 01:48:10;;;;;;;;;;;;;;;14.22;100.00;98091.31;2620172;28;19934;-91
2023/07/22 01:49:26;;;;;;;;;;;;;;;14.24;100.00;98086.81;2620041;28;19928;-90
2023/07/22 01:50:41;;;;;;;;;;;;;;;14.22;100.00;98085.19;2619440;28;19929;-91
2023/07/22 01:51:57;;;;;;;;;;;;;;;14.13;100.00;98094.41;2619457;28;19971;-90
2023/07/22 01:53:12;;;;;;;;;;;;;;;14.24;100.00;98091.25;2619254;28;19935;-90
2023/07/22 01:54:27;;;;;;;;;;;;;;;14.41;100.00;98090.41;2619699;28;19939;-90
2023/07/22 01:55:44;;;;;;;;;;;;;;;14.45;100.00;98089.34;2619387;28;19929;-91
2023/07/22 01:56:59;;;;;;;;;;;;;;;14.18;100.00;98095.03;2619868;28;19936;-90
2023/07/22 01:58:14;;;;;;;;;;;;;;;14.24;100.00;98099.97;2620128;28;19925;-91
2023/07/22 01:59:30;;;;;;;;;;;;;;;14.18;100.00;98092.38;2620004;28;19925;-91
2023/07/22 02:00:49;;;;;;;;;;;;;;;14.29;100.00;98096.28;2619386;28;20001;-91
2023/07/22 02:02:05;;;;;;;;;;;;;;;14.06;100.00;98098.25;2619892;28;19998;-90
2023/07/22 02:03:20;;;;;;;;;;;;;;;14.11;100.00;98093.63;2619821;28;19932;-90
2023/07/22 02:04:35;;;;;;;;;;;;;;;13.96;100.00;98093.41;2619529;28;19928;-91
2023/07/22 02:05:51;;;;;;;;;;;;;;;14.18;100.00;98102.91;2619938;28;19936;-91
2023/07/22 02:07:06;;;;;;;;;;;;;;;14.11;100.00;98105.00;2619789;28;20304;-90
2023/07/22 02:08:22;;;;;;;;;;;;;;;14.08;100.00;98107.78;2618431;28;19924;-90
2023/07/22 02:09:37;;;;;;;;;;;;;;;14.21;100.00;98102.75;2619046;28;19935;-90
2023/07/22 02:10:53;;;;;;;;;;;;;;;14.23;100.00;98100.06;2621941;28;19974;-91
2023/07/22 02:12:08;;;;;;;;;;;;;;;14.15;100.00;98096.94;2623619;28;19960;-90
2023/07/22 02:13:23;;;;;;;;;;;;;;;14.04;100.00;98100.09;2623005;28;19929;-91
2023/07/22 02:14:39;;;;;;;;;;;;;;;14.23;100.00;98100.06;2624801;28;19972;-90
2023/07/22 02:15:55;;;;;;;;;;;;;;;14.25;100.00;98104.34;2625439;28;19925;-90
2023/07/22 02:17:10;;;;;;;;;;;;;;;14.27;100.00;98106.88;2625614;28;20116;-91
2023/07/22 02:18:26;;;;;;;;;;;;;;;14.09;100.00;98101.59;2625231;28;19924;-90
2023/07/22 02:19:41;;;;;;;;;;;;;;;14.05;100.00;98107.06;2622459;28;20023;-91
2023/07/22 02:20:57;;;;;;;;;;;;;;;14.05;100.00;98100.03;2619703;28;19947;-92
2023/07/22 02:22:12;;;;;;;;;;;;;;;14.13;100.00;98100.50;2612219;28;20327;-91
2023/07/22 02:23:28;;;;;;;;;;;;;;;14.15;100.00;98112.75;2612551;28;19928;-90
2023/07/22 02:24:43;;;;;;;;;;;;;;;14.19;100.00;98109.88;2619677;28;19964;-91
2023/07/22 02:25:59;;;;;;;;;;;;;;;14.12;100.00;98105.84;2619243;28;20011;-91
2023/07/22 02:27:14;;;;;;;;;;;;;;;14.04;100.00;98115.88;2620275;28;19932;-91
2023/07/22 02:28:29;;;;;;;;;;;;;;;14.08;100.00;98112.19;2619646;28;19967;-91
2023/07/22 02:29:45;;;;;;;;;;;;;;;14.05;100.00;98117.59;2618984;28;19936;-91
2023/07/22 02:31:06;;;;;;;;;;;;;;;14.10;100.00;98120.84;2619528;28;19928;-90
2023/07/22 02:32:22;;;;;;;;;;;;;;;13.97;100.00;98121.47;2619439;28;20015;-91
2023/07/22 02:33:37;;;;;;;;;;;;;;;13.85;100.00;98129.94;2618598;28;20095;-90
2023/07/22 02:34:53;;;;;;;;;;;;;;;14.13;100.00;98131.25;2618803;28;20063;-90
2023/07/22 02:36:08;;;;;;;;;;;;;;;14.16;100.00;98120.56;2620911;28;19983;-90
2023/07/22 02:37:24;;;;;;;;;;;;;;;14.06;100.00;98125.44;2621343;28;19929;-92
2023/07/22 02:38:39;;;;;;;;;;;;;;;14.14;100.00;98132.97;2621542;28;19929;-91
2023/07/22 02:39:55;;;;;;;;;;;;;;;14.18;100.00;98133.66;2622345;28;19979;-90
2023/07/22 02:41:10;;;;;;;;;;;;;;;14.18;100.00;98129.25;2622411;28;19924;-91
2023/07/22 02:42:26;;;;;;;;;;;;;;;14.08;100.00;98123.56;2622235;28;20380;-91
2023/07/22 02:43:41;;;;;;;;;;;;;;;14.02;100.00;98133.53;2621615;28;19928;-91
2023/07/22 02:44:56;;;;;;;;;;;;;;;13.95;100.00;98127.72;2622145;28;19925;-91
2023/07/22 02:46:12;;;;;;;;;;;;;;;13.99;100.00;98129.25;2621432;28;20130;-91
2023/07/22 02:47:28;;;;;;;;;;;;;;;13.97;100.00;98128.50;2621209;28;20590;-91
2023/07/22 02:48:43;;;;;;;;;;;;;;;13.88;100.00;98135.03;2620438;28;19928;-92
2023/07/22 02:49:59;;;;;;;;;;;;;;;13.96;100.00;98140.78;2614551;28;19989;-91
2023/07/22 02:51:14;;;;;;;;;;;;;;;13.93;100.00;98145.34;2620237;28;19989;-90
2023/07/22 02:52:30;;;;;;;;;;;;;;;13.91;100.00;98149.84;2621077;28;19928;-91
2023/07/22 02:53:46;;;;;;;;;;;;;;;13.74;100.00;98147.97;2619982;28;19928;-90
2023/07/22 02:55:06;;;;;;;;;;;;;;;13.83;100.00;98139.69;2620982;28;19970;-90
2023/07/22 02:56:21;;;;;;;;;;;;;;;13.81;100.00;98147.63;2621457;28;19933;-91
2023/07/22 02:57:37;;;;;;;;;;;;;;;13.80;100.00;98152.94;2621856;28;19928;-91
2023/07/22 02:58:53;;;;;;;;;;;;;;;13.82;100.00;98151.09;2621116;28;19971;-90
2023/07/22 03:00:09;;;;;;;;;;;;;;;13.73;100.00;98159.44;2621410;28;19933;-91
2023/07/22 03:01:24;;;;;;;;;;;;;;;13.87;100.00;98157.03;2621388;28;19974;-91
2023/07/22 03:02:40;;;;;;;;;;;;;;;13.97;100.00;98160.06;2619994;28;19931;-90
2023/07/22 03:03:55;;;;;;;;;;;;;;;13.90;100.00;98156.88;2620482;28;20372;-91
2023/07/22 03:05:11;;;;;;;;;;;;;;;13.83;100.00;98152.81;2621474;28;19925;-90
2023/07/22 03:06:26;;;;;;;;;;;;;;;13.74;100.00;98159.34;2621624;28;19931;-91
2023/07/22 03:07:42;;;;;;;;;;;;;;;13.68;100.00;98157.84;2621198;28;20011;-92
2023/07/22 03:08:57;;;;;;;;;;;;;;;13.75;100.00;98162.84;2621004;28;20238;-93
2023/07/22 03:10:13;;;;;;;;;;;;;;;13.65;100.00;98165.88;2620667;28;20036;-91
2023/07/22 03:11:28;;;;;;;;;;;;;;;13.73;100.00;98165.53;2620633;28;19925;-90
2023/07/22 03:12:44;;;;;;;;;;;;;;;13.72;100.00;98168.25;2619857;28;19932;-92
2023/07/22 03:13:59;;;;;;;;;;;;;;;13.84;100.00;98170.31;2620857;28;19982;-91
2023/07/22 03:15:15;;;;;;;;;;;;;;;13.88;100.00;98169.25;2620698;28;20012;-91
2023/07/22 03:16:31;;;;;;;;;;;;;;;13.75;100.00;98161.03;2621367;28;19933;-91
2023/07/22 03:17:47;;;;;;;;;;;;;;;13.77;100.00;98169.75;2620911;28;20386;-91
2023/07/22 03:19:02;;;;;;;;;;;;;;;13.79;100.00;98169.66;2620379;28;20024;-92
2023/07/22 03:20:19;;;;;;;;;;;;;;;13.64;100.00;98172.06;2619854;28;20812;-91
2023/07/22 03:21:34;;;;;;;;;;;;;;;13.62;100.00;98165.16;2620729;28;19928;-91
2023/07/22 03:22:50;;;;;;;;;;;;;;;13.61;100.00;98172.22;2620289;28;19971;-91
2023/07/22 03:24:05;;;;;;;;;;;;;;;13.55;100.00;98169.88;2619942;28;20011;-90
2023/07/22 03:25:21;;;;;;;;;;;;;;;13.40;100.00;98166.94;2620596;28;19951;-92
2023/07/22 03:26:36;;;;;;;;;;;;;;;13.35;100.00;98166.28;2620861;28;19925;-91
2023/07/22 03:27:51;;;;;;;;;;;;;;;13.40;100.00;98169.56;2620864;28;19931;-91
2023/07/22 03:29:07;;;;;;;;;;;;;;;13.58;100.00;98167.09;2621271;28;19924;-91
2023/07/22 03:30:23;;;;;;;;;;;;;;;13.70;100.00;98173.56;2620865;28;19924;-91
2023/07/22 03:31:39;;;;;;;;;;;;;;;13.67;100.00;98171.91;2620346;28;19964;-90
2023/07/22 03:32:54;;;;;;;;;;;;;;;13.67;100.00;98174.53;2619462;28;20961;-91
2023/07/22 03:34:09;;;;;;;;;;;;;;;13.52;100.00;98169.97;2619856;28;20548;-91
2023/07/22 03:35:25;;;;;;;;;;;;;;;13.79;100.00;98182.81;2620656;28;19935;-91
2023/07/22 03:36:40;;;;;;;;;;;;;;;13.80;100.00;98176.63;2621635;28;20383;-90
2023/07/22 03:37:55;;;;;;;;;;;;;;;13.71;100.00;98180.53;2620564;28;19929;-91
2023/07/22 03:39:11;;;;;;;;;;;;;;;13.54;100.00;98176.03;2621579;28;19932;-91
2023/07/22 03:40:28;;;;;;;;;;;;;;;13.69;100.00;98177.13;2620884;28;19929;-91
2023/07/22 03:41:43;;;;;;;;;;;;;;;13.66;100.00;98180.72;2621016;28;20023;-91
2023/07/22 03:42:59;;;;;;;;;;;;;;;13.76;100.00;98178.56;2620820;28;19924;-91
2023/07/22 03:44:14;;;;;;;;;;;;;;;13.68;100.00;98183.31;2620688;28;19931;-91
2023/07/22 03:45:30;;;;;;;;;;;;;;;13.76;100.00;98183.81;2625076;28;19935;-92
2023/07/22 03:46:46;;;;;;;;;;;;;;;13.79;100.00;98180.19;2622968;28;19928;-91
2023/07/22 03:48:01;;;;;;;;;;;;;;;13.81;100.00;98186.22;2620989;28;19932;-91
2023/07/22 03:49:16;;;;;;;;;;;;;;;13.92;100.00;98188.38;2619865;28;19928;-91
2023/07/22 03:50:32;;;;;;;;;;;;;;;13.88;100.00;98186.81;2619788;28;20027;-91
2023/07/22 03:51:47;;;;;;;;;;;;;;;14.10;100.00;98189.28;2620669;28;19967;-91
2023/07/22 03:53:03;;;;;;;;;;;;;;;14.16;100.00;98188.16;2619797;28;19983;-90
2023/07/22 03:54:18;;;;;;;;;;;;;;;14.19;100.00;98191.50;2620825;28;19932;-91
2023/07/22 03:55:34;;;;;;;;;;;;;;;14.08;100.00;98184.13;2619984;28;19928;-91
2023/07/22 03:56:49;;;;;;;;;;;;;;;14.25;100.00;98185.97;2619961;28;19928;-93
2023/07/22 03:58:04;;;;;;;;;;;;;;;14.05;100.00;98192.16;2620835;28;19943;-91
2023/07/22 03:59:20;;;;;;;;;;;;;;;14.00;100.00;98195.94;2620627;28;19958;-89
2023/07/22 04:00:37;;;;;;;;;;;;;;;14.16;100.00;98196.91;2620091;28;20013;-91
2023/07/22 04:01:53;;;;;;;;;;;;;;;14.10;100.00;98198.06;2619244;28;19929;-92
2023/07/22 04:03:08;;;;;;;;;;;;;;;14.03;100.00;98194.00;2619521;28;20413;-91
2023/07/22 04:04:24;;;;;;;;;;;;;;;14.27;100.00;98194.66;2620223;28;19928;-90
2023/07/22 04:05:39;;;;;;;;;;;;;;;14.27;100.00;98194.66;2620596;28;19936;-91
2023/07/22 04:06:54;;;;;;;;;;;;;;;14.31;100.00;98186.59;2620654;28;20291;-91
2023/07/22 04:08:10;;;;;;;;;;;;;;;14.12;100.00;98190.94;2620210;28;19971;-91
2023/07/22 04:09:27;;;;;;;;;;;;;;;14.32;100.00;98199.69;2620740;28;19936;-91
2023/07/22 04:10:50;;;;;;;;;;;;;;;14.33;100.00;98196.13;2620805;28;19932;-91
2023/07/22 04:12:06;;;;;;;;;;;;;;;14.46;100.00;98193.75;2620223;28;20341;-92
2023/07/22 04:13:22;;;;;;;;;;;;;;;14.49;100.00;98198.88;2620306;28;19939;-91
2023/07/22 04:14:39;;;;;;;;;;;;;;;14.46;100.00;98192.91;2620747;28;20267;-90
2023/07/22 04:15:54;;;;;;;;;;;;;;;14.46;100.00;98192.91;2619735;28;19977;-91
2023/07/22 04:17:09;;;;;;;;;;;;;;;14.33;100.00;98190.00;2620430;28;19971;-93
2023/07/22 04:18:25;;;;;;;;;;;;;;;14.37;100.00;98191.56;2620213;28;19979;-92
2023/07/22 04:19:41;;;;;;;;;;;;;;;14.23;100.00;98186.97;2620329;28;20016;-90
2023/07/22 04:20:57;;;;;;;;;;;;;;;14.04;100.00;98185.19;2620144;28;19990;-91
2023/07/22 04:22:13;;;;;;;;;;;;;;;14.18;100.00;98187.16;2621107;28;19991;-89
2023/07/22 04:23:28;;;;;;;;;;;;;;;14.03;100.00;98185.25;2620025;28;19924;-88
2023/07/22 04:24:44;;;;;;;;;;;;;;;14.30;100.00;98188.34;2620279;28;20303;-89
2023/07/22 04:26:01;;;;;;;;;;;;;;;14.40;100.00;98196.69;2619789;28;20368;-90
2023/07/22 04:27:17;;;;;;;;;;;;;;;14.51;100.00;98194.38;2619938;28;19931;-89
2023/07/22 04:28:32;;;;;;;;;;;;;;;14.49;100.00;98196.25;2619931;28;19976;-90
2023/07/22 04:29:48;;;;;;;;;;;;;;;14.37;100.00;98194.19;2619545;28;19935;-91
2023/07/22 04:31:04;;;;;;;;;;;;;;;14.47;100.00;98202.53;2619588;28;19940;-91
2023/07/22 04:32:19;;;;;;;;;;;;;;;14.36;100.00;98200.38;2619502;28;19928;-91
2023/07/22 04:33:34;;;;;;;;;;;;;;;14.43;100.00;98201.81;2619180;28;19958;-91
2023/07/22 04:34:50;;;;;;;;;;;;;;;14.44;100.00;98210.56;2619950;28;20099;-90
2023/07/22 04:36:06;;;;;;;;;;;;;;;14.47;100.00;98213.91;2619923;28;19928;-91
2023/07/22 04:37:22;;;;;;;;;;;;;;;14.59;100.00;98209.81;2620351;28;20383;-90
2023/07/22 04:38:37;;;;;;;;;;;;;;;14.49;100.00;98208.56;2619715;28;19963;-92
2023/07/22 04:39:53;;;;;;;;;;;;;;;14.55;100.00;98210.91;2620229;28;19924;-91
2023/07/22 04:41:08;;;;;;;;;;;;;;;14.58;100.00;98212.53;2620096;28;19925;-92
2023/07/22 04:42:23;;;;;;;;;;;;;;;14.62;100.00;98211.47;2619684;28;20125;-91
2023/07/22 04:43:40;;;;;;;;;;;;;;;14.72;100.00;98212.75;2620501;28;19928;-91
2023/07/22 04:44:55;;;;;;;;;;;;;;;14.79;100.00;98211.50;2619773;28;19928;-93
2023/07/22 04:46:11;;;;;;;;;;;;;;;14.79;100.00;98214.16;2620321;28;19928;-92
2023/07/22 04:47:27;;;;;;;;;;;;;;;14.86;100.00;98217.34;2620213;28;19928;-91
2023/07/22 04:48:42;;;;;;;;;;;;;;;14.87;100.00;98212.94;2618964;28;20034;-91
2023/07/22 04:49:58;;;;;;;;;;;;;;;14.83;100.00;98209.59;2619426;28;20696;-92
2023/07/22 04:51:13;;;;;;;;;;;;;;;14.91;100.00;98214.47;2620261;28;19955;-92
2023/07/22 04:52:29;;;;;;;;;;;;;;;14.97;100.00;98207.13;2620338;28;19924;-92
2023/07/22 04:53:44;;;;;;;;;;;;;;;14.92;100.00;98216.19;2620619;28;19925;-91
2023/07/22 04:55:00;;;;;;;;;;;;;;;14.95;100.00;98208.16;2619993;28;19924;-92
2023/07/22 04:56:16;;;;;;;;;;;;;;;14.91;100.00;98219.75;2620268;28;19929;-91
2023/07/22 04:57:31;;;;;;;;;;;;;;;14.91;100.00;98215.34;2619290;28;19935;-91
2023/07/22 04:58:46;;;;;;;;;;;;;;;14.92;100.00;98216.19;2619711;28;19930;-91
2023/07/22 05:00:07;;;;;;;;;;;;;;;14.85;100.00;98214.81;2619029;28;20610;-91
2023/07/22 05:01:23;;;;;;;;;;;;;;;14.86;100.00;98227.03;2620194;28;19977;-91
2023/07/22 05:02:38;;;;;;;;;;;;;;;14.88;100.00;98223.41;2620016;28;20276;-90
2023/07/22 05:03:55;;;;;;;;;;;;;;;14.84;100.00;98224.47;2620522;28;19960;-93
2023/07/22 05:05:10;;;;;;;;;;;;;;;14.72;100.00;98225.94;2619895;28;20705;-91
2023/07/22 05:06:25;;;;;;;;;;;;;;;14.80;100.00;98226.41;2620326;28;19958;-91
2023/07/22 05:07:41;;;;;;;;;;;;;;;14.84;100.00;98224.47;2620075;28;19983;-91
2023/07/22 05:08:56;;;;;;;;;;;;;;;14.79;100.00;98222.06;2619854;28;19974;-90
2023/07/22 05:10:13;;;;;;;;;;;;;;;14.59;100.00;98227.41;2620352;28;19939;-91
2023/07/22 05:11:28;;;;;;;;;;;;;;;14.81;100.00;98220.22;2620123;28;19964;-91
2023/07/22 05:12:44;;;;;;;;;;;;;;;14.71;100.00;98226.84;2619924;28;20403;-91
2023/07/22 05:13:59;;;;;;;;;;;;;;;14.86;100.00;98229.69;2619824;28;19971;-91
2023/07/22 05:15:15;;;;;;;;;;;;;;;15.04;100.00;98234.03;2619831;28;19928;-91
2023/07/22 05:16:30;;;;;;;;;;;;;;;15.09;100.00;98226.78;2619595;28;19928;-92
2023/07/22 05:17:46;;;;;;;;;;;;;;;15.29;100.00;98221.41;2619097;28;19928;-92
2023/07/22 05:19:01;;;;;;;;;;;;;;;15.35;100.00;98227.22;2619097;28;20479;-93
2023/07/22 05:20:17;;;;;;;;;;;;;;;15.49;100.00;98225.66;2619398;28;19970;-93
2023/07/22 05:21:32;;;;;;;;;;;;;;;15.59;100.00;98229.53;2619592;28;19982;-93
2023/07/22 05:22:48;;;;;;;;;;;;;;;15.56;100.00;98229.69;2620332;28;19928;-94
2023/07/22 05:24:03;;;;;;;;;;;;;;;15.63;100.00;98231.06;2618288;28;19964;-94
2023/07/22 05:25:19;;;;;;;;;;;;;;;15.75;100.00;98223.44;2620339;28;20382;-93
2023/07/22 05:26:34;;;;;;;;;;;;;;;15.82;100.00;98230.13;2619374;28;19928;-93
2023/07/22 05:27:49;;;;;;;;;;;;;;;15.94;100.00;98239.19;2619907;28;20023;-92
2023/07/22 05:29:05;;;;;;;;;;;;;;;15.98;100.00;98237.25;2619616;28;20679;-92
2023/07/22 05:30:21;;;;;;;;;;;;;;;16.03;100.00;98237.84;2620287;28;19929;-93
2023/07/22 05:31:36;;;;;;;;;;;;;;;16.08;100.00;98241.09;2619547;28;19982;-91
2023/07/22 05:32:52;;;;;;;;;;;;;;;16.08;100.00;98236.66;2619508;28;19936;-92
2023/07/22 05:34:08;;;;;;;;;;;;;;;16.18;100.00;98231.72;2618843;28;19935;-91
2023/07/22 05:35:23;;;;;;;;;;;;;;;16.24;100.00;98236.69;2618603;28;19975;-92
2023/07/22 05:36:39;;;;;;;;;;;;;;;16.19;100.00;98241.34;2619020;28;20364;-91
2023/07/22 05:37:54;;;;;;;;;;;;;;;16.16;100.00;98235.41;2619682;28;19985;-92
2023/07/22 05:39:10;;;;;;;;;;;;;;;16.12;100.00;98240.00;2619418;28;19929;-92
2023/07/22 05:40:25;;;;;;;;;;;;;;;16.24;100.00;98241.97;2620093;28;19931;-92
2023/07/22 05:41:41;;;;;;;;;;;;;;;16.42;100.00;98244.53;2620155;28;19936;-94
2023/07/22 05:42:56;;;;;;;;;;;;;;;16.50;100.00;98247.63;2620345;28;19924;-95
2023/07/22 05:44:12;;;;;;;;;;;;;;;16.64;100.00;98246.00;2619662;28;20019;-93
2023/07/22 05:45:27;;;;;;;;;;;;;;;16.55;100.00;98242.03;2620066;28;19953;-93
2023/07/22 05:46:43;;;;;;;;;;;;;;;16.47;100.00;98247.75;2619600;28;19921;-91
2023/07/22 05:47:58;;;;;;;;;;;;;;;16.60;100.00;98252.38;2620071;28;19929;-91
2023/07/22 05:49:14;;;;;;;;;;;;;;;16.63;100.00;98246.94;2619607;28;19950;-91
2023/07/22 05:50:29;;;;;;;;;;;;;;;16.63;100.00;98246.94;2619490;28;19928;-91
2023/07/22 05:51:44;;;;;;;;;;;;;;;16.67;100.00;98248.47;2620003;28;20015;-90
2023/07/22 05:52:59;;;;;;;;;;;;;;;16.69;100.00;98249.22;2619060;28;19928;-91
2023/07/22 05:54:15;;;;;;;;;;;;;;;16.65;100.00;98250.34;2619613;28;19935;-92
2023/07/22 05:55:30;;;;;;;;;;;;;;;16.58;100.00;98246.31;2619013;28;19929;-91
2023/07/22 05:56:46;;;;;;;;;;;;;;;16.64;100.00;98243.34;2619470;28;19940;-91
2023/07/22 05:58:05;;;;;;;;;;;;;;;16.74;100.00;98247.16;2618492;28;19933;-94
2023/07/22 05:59:20;;;;;;;;;;;;;;;16.77;100.00;98243.50;2620414;28;20190;-94
2023/07/22 06:00:36;;;;;;;;;;;;;;;16.91;100.00;98248.84;2619651;28;19929;-94
2023/07/22 06:01:51;;;;;;;;;;;;;;;16.99;100.00;98243.16;2619581;28;19935;-94
2023/07/22 06:03:06;;;;;;;;;;;;;;;17.07;100.00;98246.22;2618595;28;19980;-94
2023/07/22 06:04:22;;;;;;;;;;;;;;;17.20;100.00;98242.88;2620035;28;20399;-94
2023/07/22 06:05:38;;;;;;;;;;;;;;;17.22;100.00;98240.97;2619780;28;19993;-94
2023/07/22 06:06:53;;;;;;;;;;;;;;;17.26;100.00;98242.50;2620210;28;20239;-95
2023/07/22 06:08:08;;;;;;;;;;;;;;;17.24;100.00;98247.03;2619232;28;20466;-94
2023/07/22 06:09:24;;;;;;;;;;;;;;;17.34;100.00;98239.38;2621870;28;19928;-94
2023/07/22 06:10:40;;;;;;;;;;;;;;;17.39;100.00;98242.63;2623309;28;19935;-95
2023/07/22 06:11:55;;;;;;;;;;;;;;;17.39;100.00;98244.41;2623929;28;20027;-94
2023/07/22 06:13:11;;;;;;;;;;;;;;;17.49;100.00;98248.22;2628272;28;19974;-95
2023/07/22 06:14:27;;;;;;;;;;;;;;;17.57;100.00;98250.41;2624640;28;19928;-93
2023/07/22 06:15:42;;;;;;;;;;;;;;;17.64;100.00;98254.38;2622105;28;19967;-94
2023/07/22 06:16:57;;;;;;;;;;;;;;;17.29;100.00;98244.13;2622323;28;20391;-91
2023/07/22 06:18:13;;;;;;;;;;;;;;;17.47;100.00;98247.47;2623762;28;20440;-92
2023/07/22 06:19:28;;;;;;;;;;;;;;;17.50;100.00;98248.13;2623107;28;19939;-93
2023/07/22 06:20:44;;;;;;;;;;;;;;;17.59;100.00;98254.66;2623379;28;19929;-92
2023/07/22 06:21:59;;;;;;;;;;;;;;;17.16;100.00;98255.41;2622733;28;19959;-92
2023/07/22 06:23:15;;;;;;;;;;;;;;;17.50;100.00;98247.28;2621840;28;19975;-91
2023/07/22 06:24:30;;;;;;;;;;;;;;;17.61;100.00;98250.16;2622209;28;20050;-92
2023/07/22 06:25:46;;;;;;;;;;;;;;;17.65;100.00;98254.31;2620587;28;20453;-91
2023/07/22 06:27:01;;;;;;;;;;;;;;;17.02;100.00;98255.34;2621927;28;19932;-96
2023/07/22 06:28:17;;;;;;;;;;;;;;;17.39;100.00;98250.56;2622460;28;19928;-92